Time;durP1;ratioP1;P1;durP2;ratioP2;P2;SDS_P1;SDS_P2;PMS_P1;PMS_P2;Temp;Humidity;BMP_temperature;BMP_pressure;BME280_temperature;BME280_humidity;BME280_pressure;Samples;Min_cycle;Max_cycle;Signal;HPM_P1;HPM_P2
2022/05/14 00:00:32;;;;;;;;;;;;;;;9.02;73.62;100583.15;84844;1327;24427;-79
2022/05/14 00:02:45;;;;;;;;;;;;;;;9.00;73.76;100584.59;84812;1322;22560;-80
2022/05/14 00:04:53;;;;;;;;;;;;;;;8.98;73.79;100587.09;84800;1329;24986;-79
2022/05/14 00:07:03;;;;;;;;;;;;;;;8.95;73.71;100585.95;84810;1324;22588;-79
2022/05/14 00:09:10;;;;;;;;;;;;;;;8.91;73.81;100585.70;84830;1328;26580;-80
2022/05/14 00:13:41;;;;;;;;;;;;;;;8.86;73.82;100587.92;84817;1326;22610;-72
2022/05/14 00:15:52;;;;;;;;;;;;;;;8.86;73.81;100588.98;84809;1323;22591;-74
2022/05/14 00:18:02;;;;;;;;;;;;;;;8.85;73.95;100587.44;84804;1327;22560;-79
2022/05/14 00:20:12;;;;;;;;;;;;;;;8.83;74.04;100587.16;84793;1326;24372;-80
2022/05/14 00:22:19;;;;;;;;;;;;;;;8.80;74.01;100591.05;84776;1326;22574;-74
2022/05/14 00:24:30;;;;;;;;;;;;;;;8.78;74.04;100592.50;84735;1327;22584;-73
2022/05/14 00:26:38;;;;;;;;;;;;;;;8.73;74.03;100591.25;84796;1326;25597;-79
2022/05/14 00:28:46;;;;;;;;;;;;;;;8.71;74.06;100594.27;84692;1328;22576;-79
2022/05/14 00:30:53;;;;;;;;;;;;;;;8.68;74.03;100589.30;84794;1326;22573;-75
2022/05/14 00:33:04;;;;;;;;;;;;;;;8.69;74.05;100596.41;84814;1326;25290;-74
2022/05/14 00:35:14;;;;;;;;;;;;;;;8.67;74.07;100594.02;84790;1328;22664;-72
2022/05/14 00:37:22;;;;;;;;;;;;;;;8.67;74.13;100593.85;84703;1327;22683;-79
2022/05/14 00:39:32;;;;;;;;;;;;;;;8.67;74.14;100589.67;84815;1327;23156;-79
2022/05/14 00:41:40;;;;;;;;;;;;;;;8.67;74.09;100594.36;84808;1327;22852;-72
2022/05/14 00:43:53;;;;;;;;;;;;;;;8.69;74.23;100595.88;84803;1323;22587;-72
2022/05/14 00:46:06;;;;;;;;;;;;;;;8.70;74.14;100591.31;84797;1327;22611;-75
2022/05/14 00:48:14;;;;;;;;;;;;;;;8.71;74.41;100596.34;84724;1329;25418;-78
2022/05/14 00:50:26;;;;;;;;;;;;;;;8.70;74.28;100596.19;84807;1325;22573;-79
2022/05/14 00:52:33;;;;;;;;;;;;;;;8.68;74.47;100601.83;84797;1327;25272;-80
2022/05/14 00:54:41;;;;;;;;;;;;;;;8.69;74.62;100602.66;84821;1322;23778;-80
2022/05/14 00:56:53;;;;;;;;;;;;;;;8.71;74.95;100600.70;84734;1326;24281;-73
2022/05/14 00:59:07;;;;;;;;;;;;;;;8.73;75.05;100603.08;84808;1326;25288;-74
2022/05/14 01:01:17;;;;;;;;;;;;;;;8.78;75.24;100599.61;84792;1327;23881;-79
2022/05/14 01:03:28;;;;;;;;;;;;;;;8.83;75.25;100598.30;84703;1327;22615;-80
2022/05/14 01:05:38;;;;;;;;;;;;;;;8.88;75.52;100595.36;84801;1327;25275;-80
2022/05/14 01:07:49;;;;;;;;;;;;;;;8.92;75.54;100593.52;84811;1326;23913;-78
2022/05/14 01:10:00;;;;;;;;;;;;;;;8.95;75.89;100591.51;84806;1325;24453;-79
2022/05/14 01:12:12;;;;;;;;;;;;;;;9.02;75.88;100589.05;84810;1327;22589;-73
2022/05/14 01:14:23;;;;;;;;;;;;;;;9.12;75.91;100585.82;84816;1327;25419;-73
2022/05/14 01:16:34;;;;;;;;;;;;;;;9.19;75.87;100579.54;84787;1326;23885;-73
2022/05/14 01:18:41;;;;;;;;;;;;;;;9.23;75.74;100583.08;84783;1327;25356;-72
2022/05/14 01:20:51;;;;;;;;;;;;;;;9.25;75.56;100585.27;84804;1327;22561;-73
2022/05/14 01:23:08;;;;;;;;;;;;;;;9.24;75.31;100586.50;84775;1327;22853;-73
2022/05/14 01:27:51;;;;;;;;;;;;;;;9.20;75.08;100585.06;84793;1322;22713;-73
2022/05/14 01:29:59;;;;;;;;;;;;;;;9.16;74.93;100586.40;84790;1327;22711;-73
2022/05/14 01:32:11;;;;;;;;;;;;;;;9.10;74.90;100589.35;84816;1329;22585;-79
2022/05/14 01:34:20;;;;;;;;;;;;;;;9.04;74.90;100591.08;84810;1327;22668;-79
2022/05/14 01:36:30;;;;;;;;;;;;;;;8.98;74.78;100591.42;84861;1323;25018;-73
2022/05/14 01:38:37;;;;;;;;;;;;;;;8.91;75.05;100586.58;84732;1327;24302;-72
2022/05/14 01:40:44;;;;;;;;;;;;;;;8.86;75.16;100583.25;84782;1326;22576;-74
2022/05/14 01:42:52;;;;;;;;;;;;;;;8.82;75.28;100586.12;84730;1326;24267;-74
2022/05/14 01:44:59;;;;;;;;;;;;;;;8.78;75.13;100584.69;84670;1329;24353;-74
2022/05/14 01:47:07;;;;;;;;;;;;;;;8.73;75.06;100580.11;84765;1327;22567;-73
2022/05/14 01:49:15;;;;;;;;;;;;;;;8.67;75.13;100581.30;84705;1330;22844;-75
2022/05/14 01:51:25;;;;;;;;;;;;;;;8.62;75.45;100586.67;84794;1327;22575;-74
2022/05/14 01:53:35;;;;;;;;;;;;;;;8.58;75.62;100588.52;84763;1326;22576;-74
2022/05/14 01:55:45;;;;;;;;;;;;;;;8.53;75.36;100592.80;84781;1327;22592;-74
2022/05/14 01:57:55;;;;;;;;;;;;;;;8.47;75.62;100590.54;84801;1326;24284;-78
2022/05/14 02:00:02;;;;;;;;;;;;;;;8.45;75.92;100590.41;84752;1324;22650;-78
2022/05/14 02:02:13;;;;;;;;;;;;;;;8.45;75.94;100590.27;84736;1326;22570;-78
2022/05/14 02:04:23;;;;;;;;;;;;;;;8.43;75.99;100590.13;84750;1322;22600;-79
2022/05/14 02:06:30;;;;;;;;;;;;;;;8.39;75.96;100590.59;84724;1327;22798;-74
2022/05/14 02:08:37;;;;;;;;;;;;;;;8.35;76.07;100592.03;84788;1326;24273;-73
2022/05/14 02:10:48;;;;;;;;;;;;;;;8.34;75.97;100596.08;84752;1326;26487;-73
2022/05/14 02:12:58;;;;;;;;;;;;;;;8.31;76.15;100588.33;84758;1326;24295;-79
2022/05/14 02:15:11;;;;;;;;;;;;;;;8.28;76.06;100583.35;84691;1330;22645;-79
2022/05/14 02:17:18;;;;;;;;;;;;;;;8.25;76.25;100580.11;84742;1327;22568;-74
2022/05/14 02:19:25;;;;;;;;;;;;;;;8.23;76.35;100582.44;84697;1327;22640;-73
2022/05/14 02:21:32;;;;;;;;;;;;;;;8.21;76.57;100582.98;84791;1327;23033;-78
2022/05/14 02:23:43;;;;;;;;;;;;;;;8.23;76.90;100589.02;84706;1326;22593;-79
2022/05/14 02:25:51;;;;;;;;;;;;;;;8.26;76.91;100593.12;84749;1324;22879;-78
2022/05/14 02:27:58;;;;;;;;;;;;;;;8.33;77.29;100597.14;84781;1326;22577;-78
2022/05/14 02:30:10;;;;;;;;;;;;;;;8.38;77.13;100590.77;84792;1326;22570;-78
2022/05/14 02:32:17;;;;;;;;;;;;;;;8.43;77.06;100592.73;84755;1324;22557;-74
2022/05/14 02:34:33;;;;;;;;;;;;;;;8.49;77.16;100588.40;84699;1327;25310;-73
2022/05/14 02:36:43;;;;;;;;;;;;;;;8.58;77.08;100589.05;84746;1326;25486;-74
2022/05/14 02:38:50;;;;;;;;;;;;;;;8.66;76.93;100590.23;84799;1327;22742;-73
2022/05/14 02:40:58;;;;;;;;;;;;;;;8.72;76.84;100589.19;84726;1327;22674;-73
2022/05/14 02:43:08;;;;;;;;;;;;;;;8.83;76.88;100586.64;84714;1327;22573;-73
2022/05/14 02:45:16;;;;;;;;;;;;;;;8.92;76.83;100579.43;84711;1329;22573;-73
2022/05/14 02:47:23;;;;;;;;;;;;;;;9.02;76.61;100579.83;84752;1324;22585;-73
2022/05/14 02:49:33;;;;;;;;;;;;;;;9.12;76.37;100579.20;84774;1330;22577;-73
2022/05/14 02:51:43;;;;;;;;;;;;;;;9.19;76.00;100576.06;84827;1327;22785;-79
2022/05/14 02:53:50;;;;;;;;;;;;;;;9.22;75.91;100571.95;84778;1326;23041;-80
2022/05/14 02:56:00;;;;;;;;;;;;;;;9.26;75.64;100575.84;84774;1327;22577;-77
2022/05/14 02:58:08;;;;;;;;;;;;;;;9.30;75.54;100581.61;84799;1326;24257;-79
2022/05/14 03:00:19;;;;;;;;;;;;;;;9.34;75.39;100580.48;84784;1326;22553;-78
2022/05/14 03:02:30;;;;;;;;;;;;;;;9.37;75.17;100580.93;84794;1327;22584;-73
2022/05/14 03:04:39;;;;;;;;;;;;;;;9.38;74.93;100582.64;84025;1327;1003179;-73
2022/05/14 03:06:47;;;;;;;;;;;;;;;9.36;74.75;100581.46;84789;1326;25224;-74
2022/05/14 03:08:57;;;;;;;;;;;;;;;9.37;74.91;100573.79;84688;1327;22626;-74
2022/05/14 03:11:04;;;;;;;;;;;;;;;9.39;74.75;100577.18;84813;1327;22611;-78
2022/05/14 03:13:14;;;;;;;;;;;;;;;9.41;74.64;100588.29;84796;1322;23218;-79
2022/05/14 03:15:21;;;;;;;;;;;;;;;9.41;74.53;100585.49;84789;1327;23863;-77
2022/05/14 03:17:34;;;;;;;;;;;;;;;9.40;74.51;100585.18;84790;1326;22560;-73
2022/05/14 03:19:44;;;;;;;;;;;;;;;9.40;74.57;100586.58;84698;1324;25441;-74
2022/05/14 03:21:54;;;;;;;;;;;;;;;9.41;74.65;100585.50;84754;1326;22601;-74
2022/05/14 03:24:01;;;;;;;;;;;;;;;9.44;74.65;100582.09;84722;1327;24081;-73
2022/05/14 03:26:12;;;;;;;;;;;;;;;9.47;74.41;100586.37;84773;1326;22562;-74
2022/05/14 03:28:19;;;;;;;;;;;;;;;9.48;74.45;100586.66;84773;1326;22710;-72
2022/05/14 03:30:26;;;;;;;;;;;;;;;9.50;74.34;100587.47;84698;1327;22556;-73
2022/05/14 03:32:36;;;;;;;;;;;;;;;9.50;74.37;100586.43;84753;1327;22741;-79
2022/05/14 03:34:43;;;;;;;;;;;;;;;9.53;74.38;100587.91;84782;1327;22580;-78
2022/05/14 03:36:53;;;;;;;;;;;;;;;9.57;74.25;100587.10;84794;1326;25695;-73
2022/05/14 03:39:00;;;;;;;;;;;;;;;9.59;74.23;100587.40;84765;1326;22670;-74
2022/05/14 03:41:07;;;;;;;;;;;;;;;9.62;74.32;100592.54;84806;1330;22568;-77
2022/05/14 03:43:17;;;;;;;;;;;;;;;9.65;74.12;100594.86;84788;1330;22631;-79
2022/05/14 03:45:24;;;;;;;;;;;;;;;9.67;74.22;100598.65;84684;1328;22555;-79
2022/05/14 03:47:31;;;;;;;;;;;;;;;9.70;74.12;100595.24;84805;1327;22659;-72
2022/05/14 03:49:38;;;;;;;;;;;;;;;9.72;74.11;100600.24;84710;1331;22582;-73
2022/05/14 03:51:45;;;;;;;;;;;;;;;9.73;73.98;100601.05;84765;1331;22594;-79
2022/05/14 03:53:52;;;;;;;;;;;;;;;9.76;73.97;100602.39;84692;1329;22562;-77
2022/05/14 03:55:59;;;;;;;;;;;;;;;9.79;73.84;100599.50;84799;1327;25949;-78
2022/05/14 03:58:06;;;;;;;;;;;;;;;9.82;73.82;100598.69;84743;1327;22597;-78
2022/05/14 04:00:19;;;;;;;;;;;;;;;9.86;73.74;100593.52;84770;1326;24920;-78
2022/05/14 04:02:29;;;;;;;;;;;;;;;9.89;73.87;100595.67;84795;1327;22567;-73
2022/05/14 04:04:39;;;;;;;;;;;;;;;9.94;73.71;100593.09;84785;1327;22806;-72
2022/05/14 04:06:46;;;;;;;;;;;;;;;9.99;73.64;100593.64;84806;1327;24915;-79
2022/05/14 04:08:57;;;;;;;;;;;;;;;10.02;73.49;100591.42;84682;1332;25975;-79
2022/05/14 04:11:04;;;;;;;;;;;;;;;10.05;73.52;100584.21;84764;1326;22567;-73
2022/05/14 04:13:11;;;;;;;;;;;;;;;10.08;73.42;100583.58;84774;1327;24172;-74
2022/05/14 04:15:23;;;;;;;;;;;;;;;10.09;73.46;100581.44;84763;1324;22590;-73
2022/05/14 04:17:33;;;;;;;;;;;;;;;10.12;73.33;100578.40;84785;1326;22593;-78
2022/05/14 04:19:40;;;;;;;;;;;;;;;10.12;73.17;100574.39;84028;1324;1048786;-78
2022/05/14 04:21:51;;;;;;;;;;;;;;;10.13;73.01;100576.95;84771;1326;22579;-73
2022/05/14 04:23:59;;;;;;;;;;;;;;;10.16;73.06;100578.44;84791;1326;24241;-73
2022/05/14 04:26:09;;;;;;;;;;;;;;;10.20;73.15;100577.95;84767;1322;22571;-78
2022/05/14 04:28:19;;;;;;;;;;;;;;;10.26;73.11;100581.08;84755;1327;22779;-77
2022/05/14 04:30:26;;;;;;;;;;;;;;;10.35;73.19;100584.83;84790;1327;24213;-78
2022/05/14 04:32:33;;;;;;;;;;;;;;;10.43;73.02;100587.70;84763;1326;22643;-78
2022/05/14 04:34:43;;;;;;;;;;;;;;;10.49;72.88;100588.72;84750;1326;22796;-77
2022/05/14 04:36:55;;;;;;;;;;;;;;;10.57;72.96;100588.42;84771;1327;24259;-73
2022/05/14 04:39:06;;;;;;;;;;;;;;;10.67;72.83;100590.70;84757;1326;25591;-74
2022/05/14 04:41:16;;;;;;;;;;;;;;;10.74;72.44;100581.02;84659;1327;22726;-78
2022/05/14 04:43:26;;;;;;;;;;;;;;;10.82;72.39;100578.65;84759;1326;22662;-78
2022/05/14 04:45:33;;;;;;;;;;;;;;;10.91;72.18;100576.59;84758;1327;25282;-77
2022/05/14 04:47:42;;;;;;;;;;;;;;;11.00;72.07;100574.15;84667;1328;22563;-78
2022/05/14 04:49:50;;;;;;;;;;;;;;;11.08;71.85;100576.99;84767;1325;22577;-78
2022/05/14 04:51:58;;;;;;;;;;;;;;;11.15;71.52;100575.37;84789;1327;22579;-73
2022/05/14 04:54:08;;;;;;;;;;;;;;;11.21;71.48;100572.69;84658;1324;22601;-73
2022/05/14 04:56:15;;;;;;;;;;;;;;;11.28;71.54;100574.52;84799;1326;23776;-79
2022/05/14 04:58:26;;;;;;;;;;;;;;;11.35;71.23;100573.69;84750;1326;22568;-80
2022/05/14 05:00:33;;;;;;;;;;;;;;;11.42;70.84;100568.59;84773;1326;23926;-78
2022/05/14 05:05:10;;;;;;;;;;;;;;;11.46;70.50;100574.72;84681;1329;25763;-78
2022/05/14 05:07:21;;;;;;;;;;;;;;;11.47;70.36;100577.98;84729;1330;22561;-73
2022/05/14 05:09:32;;;;;;;;;;;;;;;11.47;70.29;100583.40;84696;1326;24064;-73
2022/05/14 05:11:39;;;;;;;;;;;;;;;11.46;70.04;100580.64;84661;1330;22586;-73
2022/05/14 05:13:50;;;;;;;;;;;;;;;11.44;70.23;100584.23;84695;1327;22579;-73
2022/05/14 05:16:01;;;;;;;;;;;;;;;11.43;70.20;100582.16;84695;1329;22576;-79
2022/05/14 05:18:11;;;;;;;;;;;;;;;11.41;70.21;100583.99;84710;1327;22570;-78
2022/05/14 05:20:18;;;;;;;;;;;;;;;11.38;70.02;100577.30;84708;1327;26014;-78
2022/05/14 05:22:25;;;;;;;;;;;;;;;11.36;70.14;100578.56;84734;1327;24275;-78
2022/05/14 05:24:33;;;;;;;;;;;;;;;11.35;70.16;100578.98;84671;1328;22638;-77
2022/05/14 05:26:43;;;;;;;;;;;;;;;11.35;70.28;100579.31;84692;1327;22601;-73
2022/05/14 05:28:50;;;;;;;;;;;;;;;11.38;70.17;100567.86;84708;1330;22838;-72
2022/05/14 05:30:57;;;;;;;;;;;;;;;11.45;70.36;100564.27;84703;1327;23840;-76
2022/05/14 05:33:05;;;;;;;;;;;;;;;11.53;70.41;100561.52;84704;1327;23898;-78
2022/05/14 05:35:12;;;;;;;;;;;;;;;11.62;70.28;100559.76;84718;1327;25295;-78
2022/05/14 05:37:22;;;;;;;;;;;;;;;11.72;70.32;100557.77;84690;1327;25551;-73
2022/05/14 05:39:30;;;;;;;;;;;;;;;11.85;70.02;100551.86;84722;1330;22748;-72
2022/05/14 05:41:40;;;;;;;;;;;;;;;12.03;70.04;100548.68;84692;1327;24280;-78
2022/05/14 05:43:50;;;;;;;;;;;;;;;12.24;69.69;100548.86;84728;1329;22597;-79
2022/05/14 05:45:59;;;;;;;;;;;;;;;12.74;71.76;100542.34;84728;1327;22590;-73
2022/05/14 05:48:08;;;;;;;;;;;;;;;13.43;70.27;100539.23;84684;1324;22654;-74
2022/05/14 05:50:18;;;;;;;;;;;;;;;13.87;68.67;100538.17;84718;1327;24189;-73
2022/05/14 05:52:26;;;;;;;;;;;;;;;14.09;66.98;100542.34;84724;1329;22852;-79
2022/05/14 05:56:59;;;;;;;;;;;;;;;14.36;65.71;100534.11;84724;1327;22713;-71
2022/05/14 05:59:07;;;;;;;;;;;;;;;14.49;65.32;100534.21;84727;1329;24325;-73
2022/05/14 06:01:15;;;;;;;;;;;;;;;14.65;64.85;100528.80;84724;1325;24643;-74
2022/05/14 06:03:22;;;;;;;;;;;;;;;14.93;65.00;100524.31;84734;1324;22602;-74
2022/05/14 06:05:30;;;;;;;;;;;;;;;15.80;67.57;100517.95;84740;1326;22856;-73
2022/05/14 06:07:38;;;;;;;;;;;;;;;17.03;64.44;100513.93;84793;1327;25244;-77
2022/05/14 06:09:48;;;;;;;;;;;;;;;18.33;61.49;100511.65;84789;1326;22577;-77
2022/05/14 06:11:56;;;;;;;;;;;;;;;19.35;58.06;100514.93;84793;1323;22568;-73
2022/05/14 06:14:03;;;;;;;;;;;;;;;20.15;55.07;100518.05;84782;1324;22574;-73
2022/05/14 06:16:11;;;;;;;;;;;;;;;20.42;52.87;100525.55;84773;1326;22827;-73
2022/05/14 06:18:20;;;;;;;;;;;;;;;20.25;51.67;100528.80;84613;1329;22615;-72
2022/05/14 06:20:31;;;;;;;;;;;;;;;19.90;51.04;100535.34;84791;1327;25251;-73
2022/05/14 06:22:38;;;;;;;;;;;;;;;19.52;50.40;100544.67;84778;1326;22699;-78
2022/05/14 06:24:45;;;;;;;;;;;;;;;19.08;50.44;100537.73;84813;1327;24254;-77
2022/05/14 06:26:55;;;;;;;;;;;;;;;18.71;50.87;100547.45;84784;1322;24241;-77
2022/05/14 06:29:06;;;;;;;;;;;;;;;18.42;51.30;100545.66;84802;1325;22568;-77
2022/05/14 06:31:16;;;;;;;;;;;;;;;18.19;51.57;100542.61;84749;1328;22607;-73
2022/05/14 06:33:26;;;;;;;;;;;;;;;17.95;51.71;100540.55;84718;1329;22586;-73
2022/05/14 06:35:33;;;;;;;;;;;;;;;17.68;52.20;100541.73;84792;1327;23945;-72
2022/05/14 06:37:45;;;;;;;;;;;;;;;17.43;52.55;100544.71;84733;1327;22696;-77
2022/05/14 06:39:53;;;;;;;;;;;;;;;17.24;52.85;100539.77;84740;1326;22641;-77
2022/05/14 06:42:03;;;;;;;;;;;;;;;17.02;52.99;100537.96;84773;1327;23949;-73
2022/05/14 06:44:13;;;;;;;;;;;;;;;16.81;53.43;100541.71;84729;1327;24256;-73
2022/05/14 06:46:24;;;;;;;;;;;;;;;16.64;53.82;100546.08;84763;1322;24277;-72
2022/05/14 06:48:31;;;;;;;;;;;;;;;16.46;54.11;100547.72;84776;1326;23146;-73
2022/05/14 06:50:41;;;;;;;;;;;;;;;16.30;54.36;100548.11;84758;1327;22569;-72
2022/05/14 06:52:53;;;;;;;;;;;;;;;16.16;54.80;100544.73;84830;1327;25340;-78
2022/05/14 06:55:00;;;;;;;;;;;;;;;16.02;55.01;100545.19;84790;1326;22594;-79
2022/05/14 06:57:10;;;;;;;;;;;;;;;15.90;55.08;100541.45;84816;1326;22803;-72
2022/05/14 06:59:20;;;;;;;;;;;;;;;15.81;55.39;100541.79;84792;1324;22635;-77
2022/05/14 07:01:27;;;;;;;;;;;;;;;15.71;55.64;100541.52;84796;1324;22559;-77
2022/05/14 07:08:31;;;;;;;;;;;;;;;15.66;56.59;100536.16;84717;1326;22583;-75
2022/05/14 07:10:41;;;;;;;;;;;;;;;15.67;56.82;100533.64;84736;1327;22597;-73
2022/05/14 07:12:51;;;;;;;;;;;;;;;15.65;56.83;100536.73;84753;1327;22561;-80
2022/05/14 07:14:58;;;;;;;;;;;;;;;15.70;57.01;100531.20;84768;1329;22608;-77
2022/05/14 07:17:11;;;;;;;;;;;;;;;15.78;57.11;100526.48;84742;1326;23917;-79
2022/05/14 07:19:19;;;;;;;;;;;;;;;15.91;57.36;100530.33;84724;1327;24235;-75
2022/05/14 07:21:26;;;;;;;;;;;;;;;16.07;57.23;100527.67;84729;1327;24303;-71
2022/05/14 07:23:40;;;;;;;;;;;;;;;16.21;56.73;100529.63;84713;1329;22898;-73
2022/05/14 07:25:55;;;;;;;;;;;;;;;16.38;56.63;100524.60;84741;1324;22605;-75
2022/05/14 07:28:02;;;;;;;;;;;;;;;16.57;56.44;100523.80;84623;1329;24201;-74
2022/05/14 07:30:14;;;;;;;;;;;;;;;16.83;56.37;100520.31;84736;1322;22547;-72
2022/05/14 07:32:25;;;;;;;;;;;;;;;17.14;55.81;100515.39;84751;1329;22573;-73
2022/05/14 07:34:32;;;;;;;;;;;;;;;17.37;55.00;100514.09;84725;1325;22590;-74
2022/05/14 07:36:44;;;;;;;;;;;;;;;17.61;54.53;100515.70;84759;1327;22590;-73
2022/05/14 07:38:52;;;;;;;;;;;;;;;17.88;54.02;100512.70;84723;1326;23784;-74
2022/05/14 07:40:59;;;;;;;;;;;;;;;18.15;53.44;100516.07;84744;1327;25334;-72
2022/05/14 07:43:09;;;;;;;;;;;;;;;18.38;52.69;100516.44;84741;1323;22614;-72
2022/05/14 07:45:18;;;;;;;;;;;;;;;18.61;52.44;100510.77;84720;1329;22582;-72
2022/05/14 07:47:25;;;;;;;;;;;;;;;18.89;51.64;100506.75;84737;1326;22634;-72
2022/05/14 07:49:34;;;;;;;;;;;;;;;19.10;50.94;100505.26;84705;1327;22615;-71
2022/05/14 07:51:42;;;;;;;;;;;;;;;19.42;50.50;100510.02;84703;1327;22569;-81
2022/05/14 07:53:52;;;;;;;;;;;;;;;19.78;49.14;100503.34;84752;1327;25466;-82
2022/05/14 07:55:59;;;;;;;;;;;;;;;20.00;48.17;100498.00;84751;1327;22563;-72
2022/05/14 07:58:06;;;;;;;;;;;;;;;20.69;48.19;100494.94;84717;1331;25994;-72
2022/05/14 08:00:18;;;;;;;;;;;;;;;21.21;46.63;100499.38;84744;1327;22566;-72
2022/05/14 08:02:31;;;;;;;;;;;;;;;21.26;45.36;100496.48;84752;1331;22671;-72
2022/05/14 08:04:43;;;;;;;;;;;;;;;21.10;44.59;100498.31;84728;1329;22550;-73
2022/05/14 08:06:51;;;;;;;;;;;;;;;20.75;44.63;100495.39;84775;1327;22558;-76
2022/05/14 08:16:08;;;;;;;;;;;;;;;19.39;45.94;100503.12;84741;1313;22599;-70
2022/05/14 08:18:16;;;;;;;;;;;;;;;19.12;46.17;100497.34;84824;1324;22587;-72
2022/05/14 08:20:23;;;;;;;;;;;;;;;18.83;46.57;100493.73;84803;1326;22569;-72
2022/05/14 08:24:59;;;;;;;;;;;;;;;18.18;47.47;100497.84;84816;1327;22607;-71
2022/05/14 08:27:09;;;;;;;;;;;;;;;17.95;47.99;100490.52;84836;1326;24220;-73
2022/05/14 08:29:20;;;;;;;;;;;;;;;17.70;48.48;100493.41;84819;1326;22593;-72
2022/05/14 08:31:32;;;;;;;;;;;;;;;17.50;48.96;100495.45;84819;1326;22934;-71
2022/05/14 08:33:40;;;;;;;;;;;;;;;17.29;49.39;100498.39;84811;1326;22578;-72
2022/05/14 08:35:50;;;;;;;;;;;;;;;17.06;49.71;100500.00;84823;1326;24428;-71
2022/05/14 08:37:58;;;;;;;;;;;;;;;16.86;50.17;100504.95;84817;1328;22660;-71
2022/05/14 08:40:09;;;;;;;;;;;;;;;16.68;51.19;100507.09;84798;1322;22626;-73
2022/05/14 08:42:16;;;;;;;;;;;;;;;16.53;51.97;100506.78;84792;1326;25274;-73
2022/05/14 08:44:24;;;;;;;;;;;;;;;16.44;52.51;100507.11;84808;1327;22599;-73
2022/05/14 08:46:39;;;;;;;;;;;;;;;16.36;52.82;100511.11;84789;1322;22881;-80
2022/05/14 08:48:48;;;;;;;;;;;;;;;16.35;53.12;100514.01;84816;1327;25234;-80
2022/05/14 08:50:59;;;;;;;;;;;;;;;16.42;53.04;100519.41;84817;1322;22533;-77
2022/05/14 08:53:07;;;;;;;;;;;;;;;16.49;52.53;100515.11;84819;1328;22583;-72
2022/05/14 08:55:16;;;;;;;;;;;;;;;16.58;52.63;100512.65;84747;1324;24234;-72
2022/05/14 08:57:26;;;;;;;;;;;;;;;16.67;52.35;100511.73;84683;1328;22734;-72
2022/05/14 08:59:55;;;;;;;;;;;;;;;16.77;52.23;100501.27;84816;1326;22595;-72
2022/05/14 09:02:06;;;;;;;;;;;;;;;16.94;51.84;100503.57;84848;1326;22561;-79
2022/05/14 09:04:17;;;;;;;;;;;;;;;17.12;51.80;100503.54;84821;1323;25409;-80
2022/05/14 09:06:28;;;;;;;;;;;;;;;17.31;51.21;100507.05;84836;1327;22681;-72
2022/05/14 09:08:35;;;;;;;;;;;;;;;17.45;50.28;100504.75;84813;1325;22587;-73
2022/05/14 09:11:00;;;;;;;;;;;;;;;17.58;50.11;100502.83;84827;1325;22554;-73
2022/05/14 09:13:14;;;;;;;;;;;;;;;17.72;49.58;100491.91;84841;1326;26000;-79
2022/05/14 09:15:25;;;;;;;;;;;;;;;17.86;49.35;100489.06;84839;1326;23954;-80
2022/05/14 09:17:32;;;;;;;;;;;;;;;18.14;49.66;100495.78;84821;1326;22577;-80
2022/05/14 09:19:44;;;;;;;;;;;;;;;18.51;49.12;100492.23;84730;1326;22556;-79
2022/05/14 09:21:56;;;;;;;;;;;;;;;18.80;48.14;100487.70;84829;1326;22733;-73
2022/05/14 09:24:15;;;;;;;;;;;;;;;19.19;47.59;100489.95;84814;1326;24461;-72
2022/05/14 09:26:26;;;;;;;;;;;;;;;19.56;45.83;100493.27;84725;1327;22600;-71
2022/05/14 09:28:41;;;;;;;;;;;;;;;19.65;44.71;100487.84;84809;1327;22742;-73
2022/05/14 09:30:55;;;;;;;;;;;;;;;19.66;43.85;100491.84;84811;1327;22568;-72
2022/05/14 09:33:06;;;;;;;;;;;;;;;19.63;42.74;100501.41;84798;1327;24700;-71
2022/05/14 09:35:19;;;;;;;;;;;;;;;19.53;42.24;100496.84;84809;1323;25678;-71
2022/05/14 09:37:29;;;;;;;;;;;;;;;19.46;42.42;100494.52;84817;1327;23947;-72
2022/05/14 09:39:36;;;;;;;;;;;;;;;19.55;41.97;100496.30;84805;1326;22566;-72
2022/05/14 09:41:45;;;;;;;;;;;;;;;19.79;42.11;100494.19;84843;1327;27143;-72
2022/05/14 09:43:54;;;;;;;;;;;;;;;20.01;41.63;100490.08;84836;1319;22794;-72
2022/05/14 09:46:04;;;;;;;;;;;;;;;20.23;40.94;100488.79;84866;1327;24148;-72
2022/05/14 09:48:18;;;;;;;;;;;;;;;20.42;40.20;100479.67;84823;1326;22719;-73
2022/05/14 09:50:31;;;;;;;;;;;;;;;20.61;39.44;100474.31;84799;1327;22686;-72
2022/05/14 09:52:40;;;;;;;;;;;;;;;21.10;39.19;100476.30;84726;1327;22563;-70
2022/05/14 09:54:50;;;;;;;;;;;;;;;21.60;38.54;100473.14;84688;1328;22692;-87
2022/05/14 09:57:32;;;;;;;;;;;;;;;22.05;38.62;100467.75;84801;1329;23950;-71
2022/05/14 09:59:54;;;;;;;;;;;;;;;22.18;35.67;100464.94;84562;1334;22589;-72
2022/05/14 10:02:11;;;;;;;;;;;;;;;22.24;36.38;100462.25;84552;1335;22547;-80
2022/05/14 10:04:39;;;;;;;;;;;;;;;22.48;35.56;100460.42;84547;1330;24377;-83
2022/05/14 10:06:48;;;;;;;;;;;;;;;22.63;34.93;100464.60;84853;1326;22553;-71
2022/05/14 10:09:01;;;;;;;;;;;;;;;22.78;34.26;100458.34;84824;1321;22599;-72
2022/05/14 10:11:14;;;;;;;;;;;;;;;22.84;33.46;100463.09;84842;1325;22558;-80
2022/05/14 10:13:23;;;;;;;;;;;;;;;22.89;33.46;100468.39;84782;1327;25274;-81
2022/05/14 10:15:39;;;;;;;;;;;;;;;22.93;32.85;100458.32;84837;1322;22665;-87
2022/05/14 10:17:51;;;;;;;;;;;;;;;22.93;32.45;100458.83;84821;1328;22626;-71
2022/05/14 10:20:09;;;;;;;;;;;;;;;22.88;33.24;100455.65;84802;1328;22554;-72
2022/05/14 10:22:20;;;;;;;;;;;;;;;22.86;33.35;100461.67;84686;1327;22593;-72
2022/05/14 10:27:11;;;;;;;;;;;;;;;22.84;33.25;100460.95;84805;1327;24321;-73
2022/05/14 10:29:25;;;;;;;;;;;;;;;22.69;32.34;100459.86;84819;1326;22568;-86
2022/05/14 10:31:40;;;;;;;;;;;;;;;22.43;32.84;100454.26;84705;1329;24215;-90
2022/05/14 10:33:47;;;;;;;;;;;;;;;22.24;32.97;100458.39;84749;1327;22607;-92
2022/05/14 10:35:58;;;;;;;;;;;;;;;22.10;33.29;100457.37;84804;1327;23468;-75
2022/05/14 10:38:07;;;;;;;;;;;;;;;21.83;33.41;100455.77;84833;1327;22839;-88
2022/05/14 10:40:21;;;;;;;;;;;;;;;21.62;33.28;100451.31;84819;1329;22610;-81
2022/05/14 10:42:48;;;;;;;;;;;;;;;21.37;34.57;100456.70;84827;1325;24102;-71
2022/05/14 10:44:57;;;;;;;;;;;;;;;21.33;34.91;100455.80;84789;1327;23767;-80
2022/05/14 10:47:06;;;;;;;;;;;;;;;21.21;34.74;100456.61;84744;1327;24061;-83
2022/05/14 10:49:19;;;;;;;;;;;;;;;21.12;35.16;100457.19;84791;1325;22695;-84
2022/05/14 10:51:30;;;;;;;;;;;;;;;21.01;34.99;100456.25;84750;1327;22575;-72
2022/05/14 10:53:43;;;;;;;;;;;;;;;20.89;35.60;100453.29;84703;1328;25539;-72
2022/05/14 10:55:54;;;;;;;;;;;;;;;20.81;35.84;100452.73;84797;1327;22565;-73
2022/05/14 10:58:07;;;;;;;;;;;;;;;20.74;36.06;100446.87;84833;1325;23770;-73
2022/05/14 11:00:32;;;;;;;;;;;;;;;20.69;35.97;100448.91;84799;1327;22662;-72
2022/05/14 11:02:57;;;;;;;;;;;;;;;20.70;36.22;100451.99;84868;1326;25614;-72
2022/05/14 11:05:07;;;;;;;;;;;;;;;20.83;35.87;100455.06;84826;1326;22863;-72
2022/05/14 11:07:29;;;;;;;;;;;;;;;20.97;36.09;100454.78;84811;1325;22568;-81
2022/05/14 11:09:42;;;;;;;;;;;;;;;21.16;36.05;100459.16;84821;1327;24290;-85
2022/05/14 11:11:57;;;;;;;;;;;;;;;21.31;35.75;100456.48;84801;1327;22550;-84
2022/05/14 11:14:09;;;;;;;;;;;;;;;21.37;35.32;100458.53;84805;1327;23904;-83
2022/05/14 11:16:19;;;;;;;;;;;;;;;21.42;35.04;100456.32;84805;1326;22554;-72
2022/05/14 11:18:27;;;;;;;;;;;;;;;21.47;34.97;100461.21;84808;1327;24963;-72
2022/05/14 11:20:34;;;;;;;;;;;;;;;21.46;34.99;100460.81;84792;1325;22572;-73
2022/05/14 11:22:45;;;;;;;;;;;;;;;21.35;34.50;100464.88;84839;1326;22680;-80
2022/05/14 11:24:53;;;;;;;;;;;;;;;21.21;34.60;100468.34;84793;1328;22571;-80
2022/05/14 11:27:03;;;;;;;;;;;;;;;21.01;34.49;100464.05;84800;1326;23936;-74
2022/05/14 11:29:15;;;;;;;;;;;;;;;20.75;34.66;100466.13;84762;1331;22706;-75
2022/05/14 11:31:27;;;;;;;;;;;;;;;20.48;35.04;100469.64;84769;1324;22848;-72
2022/05/14 11:33:37;;;;;;;;;;;;;;;20.24;35.35;100473.67;84807;1321;22832;-73
2022/05/14 11:35:47;;;;;;;;;;;;;;;20.01;35.86;100486.39;84815;1327;22871;-72
2022/05/14 11:37:57;;;;;;;;;;;;;;;19.85;36.40;100491.33;84804;1326;24327;-85